Time;durP1;ratioP1;P1;durP2;ratioP2;P2;SDS_P1;SDS_P2;PMS_P1;PMS_P2;Temp;Humidity;BMP_temperature;BMP_pressure;BME280_temperature;BME280_humidity;BME280_pressure;Samples;Min_cycle;Max_cycle;Signal;HPM_P1;HPM_P2
2024/03/03 00:00:06;;;;;;;7.05;5.20;;;;;;;;;;514990;28;1218;-80
2024/03/03 00:00:24;;;;;;;7.60;5.32;;;;;;;;;;514929;28;811;-81
2024/03/03 00:00:39;;;;;;;7.57;5.40;;;;;;;;;;515764;28;1080;-80
2024/03/03 00:00:55;;;;;;;7.87;5.60;;;;;;;;;;517023;28;835;-79
2024/03/03 00:01:10;;;;;;;7.47;5.35;;;;;;;;;;517311;28;811;-80
2024/03/03 00:01:26;;;;;;;7.10;5.23;;;;;;;;;;517060;28;925;-80
2024/03/03 00:01:41;;;;;;;7.07;5.22;;;;;;;;;;515710;28;1370;-81
2024/03/03 00:01:56;;;;;;;7.03;5.30;;;;;;;;;;517825;28;1034;-80
2024/03/03 00:02:12;;;;;;;6.70;5.37;;;;;;;;;;517239;28;1178;-80
2024/03/03 00:02:27;;;;;;;5.70;5.00;;;;;;;;;;517167;28;1295;-80
2024/03/03 00:02:42;;;;;;;6.30;4.90;;;;;;;;;;516150;28;1308;-80
2024/03/03 00:02:58;;;;;;;6.77;5.17;;;;;;;;;;516264;28;1261;-80
2024/03/03 00:03:13;;;;;;;6.47;5.27;;;;;;;;;;516986;28;886;-80
2024/03/03 00:03:28;;;;;;;6.65;5.50;;;;;;;;;;515298;28;1196;-80
2024/03/03 00:03:44;;;;;;;6.80;5.60;;;;;;;;;;513994;28;1025;-80
2024/03/03 00:03:59;;;;;;;6.83;5.50;;;;;;;;;;514861;28;816;-80
2024/03/03 00:04:14;;;;;;;6.43;5.13;;;;;;;;;;517219;28;1421;-80
2024/03/03 00:04:30;;;;;;;6.17;5.20;;;;;;;;;;517286;28;1185;-80
2024/03/03 00:04:45;;;;;;;6.47;5.50;;;;;;;;;;517443;28;1435;-80
2024/03/03 00:05:01;;;;;;;6.40;5.20;;;;;;;;;;519247;28;1009;-80
2024/03/03 00:05:16;;;;;;;6.28;4.95;;;;;;;;;;519451;28;823;-80
2024/03/03 00:05:31;;;;;;;6.17;5.10;;;;;;;;;;521356;28;901;-80
2024/03/03 00:05:47;;;;;;;6.47;5.20;;;;;;;;;;519601;28;1055;-80
2024/03/03 00:06:02;;;;;;;7.32;5.25;;;;;;;;;;519068;28;1173;-80
2024/03/03 00:06:18;;;;;;;6.93;5.33;;;;;;;;;;516921;28;1190;-79
2024/03/03 00:06:33;;;;;;;6.90;5.40;;;;;;;;;;515551;28;1300;-80
2024/03/03 00:06:49;;;;;;;8.00;5.63;;;;;;;;;;517071;28;1295;-80
2024/03/03 00:07:04;;;;;;;7.82;5.80;;;;;;;;;;517044;28;1226;-80
2024/03/03 00:07:20;;;;;;;6.90;5.70;;;;;;;;;;517098;28;1250;-79
2024/03/03 00:07:35;;;;;;;6.90;5.60;;;;;;;;;;517166;28;1180;-80
2024/03/03 00:07:50;;;;;;;6.80;5.63;;;;;;;;;;515402;28;1356;-80
2024/03/03 00:08:06;;;;;;;7.70;5.60;;;;;;;;;;518380;28;1310;-81
2024/03/03 00:08:23;;;;;;;8.10;5.50;;;;;;;;;;518917;28;1244;-80
2024/03/03 00:08:38;;;;;;;7.47;5.40;;;;;;;;;;518409;28;1413;-81
2024/03/03 00:08:56;;;;;;;6.37;5.17;;;;;;;;;;517251;28;1097;-80
2024/03/03 00:09:11;;;;;;;6.45;5.22;;;;;;;;;;517294;28;1307;-81
2024/03/03 00:09:26;;;;;;;7.27;5.30;;;;;;;;;;518054;28;751;-80
2024/03/03 00:09:41;;;;;;;7.20;5.33;;;;;;;;;;519818;28;1343;-81
2024/03/03 00:09:57;;;;;;;7.00;5.47;;;;;;;;;;519824;28;949;-81
2024/03/03 00:10:12;;;;;;;7.63;5.17;;;;;;;;;;517227;28;1437;-80
2024/03/03 00:10:28;;;;;;;6.93;5.07;;;;;;;;;;516824;28;1290;-80
2024/03/03 00:10:43;;;;;;;6.63;5.22;;;;;;;;;;515138;28;1126;-80
2024/03/03 00:10:58;;;;;;;8.73;5.10;;;;;;;;;;515810;28;1466;-80
2024/03/03 00:11:14;;;;;;;8.30;4.90;;;;;;;;;;517123;28;1258;-81
2024/03/03 00:11:29;;;;;;;6.68;5.00;;;;;;;;;;516822;28;1969;-80
2024/03/03 00:11:44;;;;;;;7.00;5.10;;;;;;;;;;516322;28;1255;-80
2024/03/03 00:12:00;;;;;;;7.22;5.20;;;;;;;;;;514675;28;1311;-80
2024/03/03 00:12:15;;;;;;;7.37;5.30;;;;;;;;;;515228;28;1172;-81
2024/03/03 00:12:31;;;;;;;7.30;5.30;;;;;;;;;;515045;28;1181;-80
2024/03/03 00:12:46;;;;;;;7.35;5.28;;;;;;;;;;513241;28;1060;-79
2024/03/03 00:13:02;;;;;;;6.53;5.17;;;;;;;;;;515038;28;1145;-80
2024/03/03 00:13:17;;;;;;;6.57;5.13;;;;;;;;;;515026;28;804;-80
2024/03/03 00:13:32;;;;;;;6.60;5.03;;;;;;;;;;518925;28;1215;-80
2024/03/03 00:13:48;;;;;;;6.13;5.00;;;;;;;;;;517296;28;1350;-80
2024/03/03 00:14:03;;;;;;;5.82;4.85;;;;;;;;;;515041;28;1397;-80
2024/03/03 00:14:19;;;;;;;5.67;4.60;;;;;;;;;;515109;28;1233;-81
2024/03/03 00:14:35;;;;;;;5.75;4.82;;;;;;;;;;515339;28;834;-80
2024/03/03 00:14:50;;;;;;;5.80;4.97;;;;;;;;;;516780;28;1246;-80
2024/03/03 00:15:06;;;;;;;5.70;4.90;;;;;;;;;;515822;28;1456;-80
2024/03/03 00:15:21;;;;;;;6.65;5.18;;;;;;;;;;516485;28;1215;-81
2024/03/03 00:15:36;;;;;;;6.87;5.23;;;;;;;;;;515623;28;1338;-80
2024/03/03 00:15:52;;;;;;;6.20;5.05;;;;;;;;;;515708;28;1583;-81
2024/03/03 00:16:08;;;;;;;6.07;5.17;;;;;;;;;;515813;28;1322;-81
2024/03/03 00:16:23;;;;;;;6.72;5.50;;;;;;;;;;513049;28;1259;-80
2024/03/03 00:16:42;;;;;;;7.73;5.80;;;;;;;;;;513687;28;977;-80
2024/03/03 00:16:57;;;;;;;7.68;6.18;;;;;;;;;;514533;28;882;-80
2024/03/03 00:17:13;;;;;;;7.60;6.35;;;;;;;;;;513737;28;1599;-80
2024/03/03 00:17:28;;;;;;;7.63;6.37;;;;;;;;;;511101;28;1231;-81
2024/03/03 00:17:44;;;;;;;8.77;6.30;;;;;;;;;;512889;28;1388;-80
2024/03/03 00:17:59;;;;;;;8.50;6.20;;;;;;;;;;514082;28;1317;-80
2024/03/03 00:18:14;;;;;;;7.03;6.00;;;;;;;;;;514542;28;1598;-80
2024/03/03 00:18:30;;;;;;;7.17;6.10;;;;;;;;;;515213;28;1248;-80
2024/03/03 00:18:45;;;;;;;8.18;6.40;;;;;;;;;;515198;28;1438;-81
2024/03/03 00:19:01;;;;;;;8.63;6.53;;;;;;;;;;514421;28;1165;-80
2024/03/03 00:19:16;;;;;;;8.10;6.33;;;;;;;;;;513291;28;1050;-81
2024/03/03 00:19:32;;;;;;;8.32;6.53;;;;;;;;;;511080;29;1221;-81
2024/03/03 00:19:47;;;;;;;8.27;6.60;;;;;;;;;;512603;28;1336;-80
2024/03/03 00:20:04;;;;;;;8.37;6.40;;;;;;;;;;513132;28;1194;-80
2024/03/03 00:20:20;;;;;;;9.05;6.30;;;;;;;;;;513245;28;906;-80
2024/03/03 00:20:35;;;;;;;7.47;6.27;;;;;;;;;;513636;28;1307;-80
2024/03/03 00:20:50;;;;;;;7.63;6.30;;;;;;;;;;515156;28;1220;-82
2024/03/03 00:21:13;;;;;;;7.47;6.20;;;;;;;;;;515378;28;807;-80
2024/03/03 00:21:30;;;;;;;7.63;6.13;;;;;;;;;;516143;28;1296;-80
2024/03/03 00:21:45;;;;;;;7.57;6.13;;;;;;;;;;516584;28;1536;-80
2024/03/03 00:22:00;;;;;;;8.53;6.00;;;;;;;;;;517123;28;1325;-80
2024/03/03 00:22:16;;;;;;;8.90;6.18;;;;;;;;;;517103;28;1260;-80
2024/03/03 00:22:32;;;;;;;8.23;6.17;;;;;;;;;;517175;28;993;-81
2024/03/03 00:22:48;;;;;;;7.03;5.95;;;;;;;;;;517284;28;1190;-80
2024/03/03 00:23:03;;;;;;;7.68;5.93;;;;;;;;;;517286;28;1334;-81
2024/03/03 00:23:19;;;;;;;8.18;6.10;;;;;;;;;;516612;28;1430;-81
2024/03/03 00:23:34;;;;;;;8.60;6.30;;;;;;;;;;515552;28;1331;-80
2024/03/03 00:23:51;;;;;;;8.60;6.13;;;;;;;;;;516926;28;1212;-81
2024/03/03 00:24:06;;;;;;;7.78;6.05;;;;;;;;;;516617;28;1487;-81
2024/03/03 00:24:21;;;;;;;7.70;6.20;;;;;;;;;;512838;28;1288;-81
2024/03/03 00:24:37;;;;;;;7.82;6.28;;;;;;;;;;512880;28;1375;-80
2024/03/03 00:24:52;;;;;;;8.33;6.43;;;;;;;;;;514994;28;1277;-80
2024/03/03 00:25:08;;;;;;;9.07;6.33;;;;;;;;;;515204;28;1280;-80
2024/03/03 00:25:23;;;;;;;8.75;6.38;;;;;;;;;;515009;28;1554;-80
2024/03/03 00:25:38;;;;;;;7.60;6.17;;;;;;;;;;514922;28;1245;-81
2024/03/03 00:25:54;;;;;;;7.03;5.70;;;;;;;;;;515132;28;923;-81
2024/03/03 00:26:09;;;;;;;6.93;5.60;;;;;;;;;;515394;28;998;-81
2024/03/03 00:26:24;;;;;;;7.03;5.50;;;;;;;;;;518094;28;1272;-80
2024/03/03 00:26:40;;;;;;;7.28;5.60;;;;;;;;;;518898;28;1218;-80
2024/03/03 00:26:55;;;;;;;7.27;5.67;;;;;;;;;;518194;28;1297;-80
2024/03/03 00:27:10;;;;;;;7.93;5.83;;;;;;;;;;517479;28;1184;-80
2024/03/03 00:27:26;;;;;;;8.82;6.10;;;;;;;;;;518591;28;1163;-80
2024/03/03 00:27:41;;;;;;;9.50;6.20;;;;;;;;;;516000;28;1033;-83
2024/03/03 00:27:56;;;;;;;8.60;6.10;;;;;;;;;;517147;28;1029;-80
2024/03/03 00:28:12;;;;;;;7.53;6.07;;;;;;;;;;516803;28;1180;-81
2024/03/03 00:28:27;;;;;;;7.63;6.00;;;;;;;;;;518167;28;898;-81
2024/03/03 00:28:42;;;;;;;7.47;5.90;;;;;;;;;;517907;28;1201;-80
2024/03/03 00:28:58;;;;;;;7.35;5.43;;;;;;;;;;514953;28;1168;-80
2024/03/03 00:29:14;;;;;;;7.93;5.60;;;;;;;;;;513417;28;1375;-81
2024/03/03 00:29:29;;;;;;;7.83;5.93;;;;;;;;;;515206;28;910;-80
2024/03/03 00:29:45;;;;;;;8.00;6.00;;;;;;;;;;515193;28;1375;-81
2024/03/03 00:30:00;;;;;;;7.50;5.83;;;;;;;;;;513166;28;1228;-81
2024/03/03 00:30:16;;;;;;;7.22;5.80;;;;;;;;;;513087;28;1252;-80
2024/03/03 00:30:31;;;;;;;7.83;6.00;;;;;;;;;;516776;28;1058;-80
2024/03/03 00:30:46;;;;;;;7.70;6.10;;;;;;;;;;517492;28;1239;-80
2024/03/03 00:31:02;;;;;;;8.13;6.10;;;;;;;;;;516268;28;1274;-80
2024/03/03 00:31:18;;;;;;;8.20;6.10;;;;;;;;;;514346;28;1442;-80
2024/03/03 00:31:41;;;;;;;7.72;6.28;;;;;;;;;;517015;28;1960;-80
2024/03/03 00:31:56;;;;;;;8.02;6.40;;;;;;;;;;514051;28;1073;-80
2024/03/03 00:32:12;;;;;;;8.90;6.30;;;;;;;;;;513083;28;832;-81
2024/03/03 00:32:27;;;;;;;8.20;5.90;;;;;;;;;;516493;28;772;-80
2024/03/03 00:32:44;;;;;;;7.22;5.93;;;;;;;;;;516993;28;1394;-80
2024/03/03 00:32:59;;;;;;;7.37;6.03;;;;;;;;;;516532;28;1463;-80
2024/03/03 00:33:15;;;;;;;7.73;6.10;;;;;;;;;;519541;28;1148;-80
2024/03/03 00:33:30;;;;;;;7.73;6.03;;;;;;;;;;521390;28;1190;-80
2024/03/03 00:33:46;;;;;;;7.13;6.07;;;;;;;;;;521316;28;1024;-81
2024/03/03 00:34:01;;;;;;;7.10;6.03;;;;;;;;;;519266;28;1234;-81
2024/03/03 00:34:16;;;;;;;7.33;6.00;;;;;;;;;;518790;28;1204;-80
2024/03/03 00:34:32;;;;;;;7.45;5.90;;;;;;;;;;519309;28;1221;-80
2024/03/03 00:34:47;;;;;;;8.13;6.13;;;;;;;;;;518564;28;1105;-80
2024/03/03 00:35:03;;;;;;;9.27;6.78;;;;;;;;;;520190;28;1329;-80
2024/03/03 00:35:18;;;;;;;8.83;6.70;;;;;;;;;;520293;28;1373;-81
2024/03/03 00:35:33;;;;;;;8.23;6.47;;;;;;;;;;517226;28;1210;-80
2024/03/03 00:35:49;;;;;;;8.37;6.40;;;;;;;;;;517260;28;1859;-80
2024/03/03 00:36:08;;;;;;;8.47;6.30;;;;;;;;;;519918;28;2221;-81
2024/03/03 00:36:23;;;;;;;8.43;6.40;;;;;;;;;;519027;28;2097;-80
2024/03/03 00:36:39;;;;;;;8.10;6.47;;;;;;;;;;518767;28;997;-80
2024/03/03 00:36:54;;;;;;;8.27;6.67;;;;;;;;;;515877;28;1175;-81
2024/03/03 00:37:10;;;;;;;8.35;6.72;;;;;;;;;;517226;28;1319;-80
2024/03/03 00:37:26;;;;;;;7.63;6.32;;;;;;;;;;517145;28;898;-81
2024/03/03 00:37:41;;;;;;;7.23;6.20;;;;;;;;;;515274;28;1276;-80
2024/03/03 00:37:56;;;;;;;7.65;6.50;;;;;;;;;;516323;28;1042;-80
2024/03/03 00:38:12;;;;;;;8.27;6.47;;;;;;;;;;514679;28;1186;-80
2024/03/03 00:38:27;;;;;;;8.47;6.40;;;;;;;;;;515259;28;843;-80
2024/03/03 00:38:43;;;;;;;8.75;6.60;;;;;;;;;;514285;28;1304;-80
2024/03/03 00:38:58;;;;;;;9.67;6.63;;;;;;;;;;514898;28;819;-80
2024/03/03 00:39:13;;;;;;;9.17;6.57;;;;;;;;;;512977;28;1054;-81
2024/03/03 00:39:28;;;;;;;8.35;6.40;;;;;;;;;;515379;28;1368;-80
2024/03/03 00:39:45;;;;;;;8.23;6.10;;;;;;;;;;518341;28;1211;-81
2024/03/03 00:40:00;;;;;;;8.43;6.18;;;;;;;;;;517440;28;1378;-80
2024/03/03 00:40:16;;;;;;;8.23;6.40;;;;;;;;;;519244;28;1149;-80
2024/03/03 00:40:32;;;;;;;7.63;6.20;;;;;;;;;;518995;28;870;-80
2024/03/03 00:40:48;;;;;;;8.52;6.25;;;;;;;;;;517311;28;1163;-80
2024/03/03 00:41:06;;;;;;;8.83;6.60;;;;;;;;;;516986;28;1184;-80
2024/03/03 00:41:22;;;;;;;8.80;6.70;;;;;;;;;;516077;28;1430;-80
2024/03/03 00:41:37;;;;;;;8.83;6.70;;;;;;;;;;515318;28;1014;-80
2024/03/03 00:41:52;;;;;;;8.75;6.50;;;;;;;;;;516372;28;1310;-83
2024/03/03 00:42:08;;;;;;;7.93;6.60;;;;;;;;;;518125;28;1642;-80
2024/03/03 00:42:23;;;;;;;7.60;6.57;;;;;;;;;;519023;28;1637;-81
2024/03/03 00:42:39;;;;;;;8.23;6.20;;;;;;;;;;517057;28;1340;-81
2024/03/03 00:42:54;;;;;;;8.70;6.47;;;;;;;;;;515972;28;1200;-80
2024/03/03 00:43:10;;;;;;;8.25;6.63;;;;;;;;;;518754;28;1328;-81
2024/03/03 00:43:25;;;;;;;8.57;6.57;;;;;;;;;;516970;28;1359;-79
2024/03/03 00:43:40;;;;;;;8.43;6.78;;;;;;;;;;517096;28;1298;-81
2024/03/03 00:43:55;;;;;;;7.80;6.43;;;;;;;;;;519153;28;1229;-80
2024/03/03 00:44:11;;;;;;;7.90;6.40;;;;;;;;;;519276;28;946;-81
2024/03/03 00:44:26;;;;;;;8.68;6.65;;;;;;;;;;517115;28;1359;-80
2024/03/03 00:44:41;;;;;;;8.87;6.40;;;;;;;;;;515929;28;1189;-80
2024/03/03 00:44:57;;;;;;;8.90;6.40;;;;;;;;;;513747;28;1212;-81
2024/03/03 00:45:12;;;;;;;8.67;6.60;;;;;;;;;;512950;28;1268;-81
2024/03/03 00:45:27;;;;;;;8.70;6.60;;;;;;;;;;512818;28;1174;-80
2024/03/03 00:45:43;;;;;;;8.03;6.20;;;;;;;;;;513034;28;1073;-80
2024/03/03 00:45:58;;;;;;;6.70;5.70;;;;;;;;;;512859;28;1212;-80
2024/03/03 00:46:13;;;;;;;6.77;5.60;;;;;;;;;;513798;28;1335;-81
2024/03/03 00:46:29;;;;;;;6.87;5.73;;;;;;;;;;514747;28;1958;-82
2024/03/03 00:46:46;;;;;;;6.55;5.53;;;;;;;;;;516874;28;2022;-81
2024/03/03 00:47:03;;;;;;;7.00;5.72;;;;;;;;;;516798;28;1025;-81
2024/03/03 00:47:19;;;;;;;7.78;6.20;;;;;;;;;;515724;28;1414;-81
2024/03/03 00:47:34;;;;;;;7.63;6.15;;;;;;;;;;515121;28;1649;-81
2024/03/03 00:47:49;;;;;;;8.17;6.40;;;;;;;;;;516887;28;1210;-81
2024/03/03 00:48:05;;;;;;;8.03;6.30;;;;;;;;;;517045;28;1811;-80
2024/03/03 00:48:21;;;;;;;7.80;6.10;;;;;;;;;;516711;28;1381;-81
2024/03/03 00:48:36;;;;;;;7.17;5.97;;;;;;;;;;517708;28;1525;-80
2024/03/03 00:48:52;;;;;;;7.13;6.00;;;;;;;;;;515715;28;1328;-80
2024/03/03 00:49:07;;;;;;;7.30;5.83;;;;;;;;;;517123;28;1354;-81
2024/03/03 00:49:22;;;;;;;7.28;5.70;;;;;;;;;;516923;28;925;-80
2024/03/03 00:49:38;;;;;;;6.60;5.50;;;;;;;;;;515155;28;1009;-80
2024/03/03 00:49:53;;;;;;;6.33;5.67;;;;;;;;;;515997;28;1366;-80
2024/03/03 00:50:09;;;;;;;6.45;5.75;;;;;;;;;;519329;28;869;-81
2024/03/03 00:50:24;;;;;;;6.60;5.70;;;;;;;;;;519079;28;1210;-80
2024/03/03 00:50:39;;;;;;;7.45;5.85;;;;;;;;;;518569;28;996;-81
2024/03/03 00:50:54;;;;;;;8.27;5.87;;;;;;;;;;516530;28;1251;-80
2024/03/03 00:51:10;;;;;;;7.10;5.47;;;;;;;;;;517429;28;1176;-80
2024/03/03 00:51:25;;;;;;;6.25;5.20;;;;;;;;;;517073;28;2021;-81
2024/03/03 00:51:40;;;;;;;7.13;5.63;;;;;;;;;;517609;28;1005;-80
2024/03/03 00:51:56;;;;;;;7.43;5.90;;;;;;;;;;519453;28;1068;-80
2024/03/03 00:52:11;;;;;;;7.70;5.95;;;;;;;;;;519535;28;1247;-80
2024/03/03 00:52:28;;;;;;;7.57;5.80;;;;;;;;;;515364;28;1358;-80
2024/03/03 00:52:43;;;;;;;7.63;5.60;;;;;;;;;;515449;28;1406;-80
2024/03/03 00:53:00;;;;;;;7.50;5.73;;;;;;;;;;514626;28;1165;-80
2024/03/03 00:53:15;;;;;;;7.07;5.63;;;;;;;;;;514770;28;1145;-81
2024/03/03 00:53:30;;;;;;;6.63;5.40;;;;;;;;;;513180;28;1247;-80
2024/03/03 00:53:46;;;;;;;6.83;5.53;;;;;;;;;;513106;28;1311;-80
2024/03/03 00:54:01;;;;;;;7.50;5.80;;;;;;;;;;513657;28;1038;-80
2024/03/03 00:54:16;;;;;;;7.03;5.80;;;;;;;;;;513971;28;1521;-80
2024/03/03 00:54:32;;;;;;;6.60;5.90;;;;;;;;;;514078;28;1517;-80
2024/03/03 00:54:47;;;;;;;7.03;6.00;;;;;;;;;;513656;28;1398;-79
2024/03/03 00:55:03;;;;;;;7.47;5.90;;;;;;;;;;517009;28;1380;-80
2024/03/03 00:55:19;;;;;;;8.23;5.88;;;;;;;;;;514416;28;1561;-80
2024/03/03 00:55:34;;;;;;;8.57;5.97;;;;;;;;;;515460;28;1496;-80
2024/03/03 00:55:51;;;;;;;7.67;6.00;;;;;;;;;;515472;28;1417;-80
2024/03/03 00:56:06;;;;;;;7.40;5.90;;;;;;;;;;514201;28;1346;-80
2024/03/03 00:56:21;;;;;;;7.00;5.90;;;;;;;;;;513521;28;1569;-80
2024/03/03 00:56:38;;;;;;;7.17;5.90;;;;;;;;;;514472;28;1484;-80
2024/03/03 00:56:53;;;;;;;8.48;6.10;;;;;;;;;;514444;28;1548;-80
2024/03/03 00:57:08;;;;;;;8.37;6.20;;;;;;;;;;514815;28;1476;-79
2024/03/03 00:57:23;;;;;;;8.17;6.13;;;;;;;;;;516024;28;1503;-80
2024/03/03 00:57:39;;;;;;;8.40;6.57;;;;;;;;;;517025;28;1203;-80
2024/03/03 00:57:54;;;;;;;8.77;6.60;;;;;;;;;;515087;28;1551;-80
2024/03/03 00:58:10;;;;;;;8.80;6.23;;;;;;;;;;519964;28;1517;-80
2024/03/03 00:58:25;;;;;;;7.28;5.95;;;;;;;;;;518682;28;1522;-82
2024/03/03 00:58:41;;;;;;;6.53;5.80;;;;;;;;;;517786;28;1515;-80
2024/03/03 00:58:56;;;;;;;6.88;6.03;;;;;;;;;;518107;28;1554;-80
2024/03/03 00:59:12;;;;;;;7.40;5.93;;;;;;;;;;517691;28;1582;-80
2024/03/03 00:59:27;;;;;;;7.93;5.93;;;;;;;;;;515585;28;1441;-80
2024/03/03 00:59:42;;;;;;;7.47;6.00;;;;;;;;;;517449;28;1507;-81
2024/03/03 00:59:58;;;;;;;7.00;5.90;;;;;;;;;;516732;28;1354;-80
2024/03/03 01:00:14;;;;;;;6.70;5.60;;;;;;;;;;515971;28;1547;-80
2024/03/03 01:00:29;;;;;;;6.28;5.45;;;;;;;;;;516255;28;1487;-80
2024/03/03 01:00:45;;;;;;;7.97;6.10;;;;;;;;;;515623;28;1347;-79
2024/03/03 01:01:01;;;;;;;8.50;6.40;;;;;;;;;;516114;28;1257;-80
2024/03/03 01:01:17;;;;;;;8.38;6.30;;;;;;;;;;515226;28;1484;-81
2024/03/03 01:01:33;;;;;;;9.15;6.35;;;;;;;;;;518259;28;1573;-80
2024/03/03 01:01:49;;;;;;;8.57;6.28;;;;;;;;;;514990;28;1301;-80
2024/03/03 01:02:04;;;;;;;7.60;6.17;;;;;;;;;;516702;28;1578;-81
2024/03/03 01:02:19;;;;;;;7.40;6.00;;;;;;;;;;517773;28;1697;-80
2024/03/03 01:02:35;;;;;;;7.43;5.95;;;;;;;;;;517731;28;1455;-80
2024/03/03 01:02:50;;;;;;;7.57;6.27;;;;;;;;;;518726;28;1520;-80
2024/03/03 01:03:06;;;;;;;7.93;6.50;;;;;;;;;;515566;28;1362;-80
2024/03/03 01:03:21;;;;;;;8.27;6.63;;;;;;;;;;515412;28;1352;-80
2024/03/03 01:03:38;;;;;;;8.10;6.77;;;;;;;;;;513664;28;1433;-80
2024/03/03 01:03:53;;;;;;;8.52;6.80;;;;;;;;;;516393;28;1543;-80
2024/03/03 01:04:09;;;;;;;9.18;6.88;;;;;;;;;;517953;28;1472;-80
2024/03/03 01:04:24;;;;;;;8.07;6.77;;;;;;;;;;515768;28;1479;-80
2024/03/03 01:04:40;;;;;;;7.90;6.30;;;;;;;;;;514781;28;1566;-81
2024/03/03 01:04:55;;;;;;;8.50;6.20;;;;;;;;;;514287;28;1477;-80
2024/03/03 01:05:11;;;;;;;8.07;6.27;;;;;;;;;;514082;28;1558;-81
2024/03/03 01:05:26;;;;;;;7.53;6.25;;;;;;;;;;513090;28;1564;-80
2024/03/03 01:05:42;;;;;;;8.20;6.13;;;;;;;;;;515486;28;1436;-80
2024/03/03 01:05:57;;;;;;;8.70;6.33;;;;;;;;;;515199;28;1393;-81
2024/03/03 01:06:13;;;;;;;8.75;6.80;;;;;;;;;;515974;28;1536;-80
2024/03/03 01:06:28;;;;;;;8.97;6.70;;;;;;;;;;516752;28;1432;-80
2024/03/03 01:06:43;;;;;;;8.83;6.50;;;;;;;;;;517470;28;1361;-80
2024/03/03 01:06:58;;;;;;;8.60;6.53;;;;;;;;;;516031;28;1218;-80
2024/03/03 01:07:15;;;;;;;7.95;6.40;;;;;;;;;;515260;28;1373;-80
2024/03/03 01:07:30;;;;;;;8.27;6.50;;;;;;;;;;514033;28;1497;-80
2024/03/03 01:07:45;;;;;;;9.00;6.67;;;;;;;;;;514556;28;1509;-80
2024/03/03 01:08:02;;;;;;;8.68;6.47;;;;;;;;;;514721;28;1157;-81
2024/03/03 01:08:17;;;;;;;8.35;6.28;;;;;;;;;;514259;28;1286;-81
2024/03/03 01:08:33;;;;;;;8.05;6.30;;;;;;;;;;515145;28;1291;-80
2024/03/03 01:08:48;;;;;;;8.03;6.20;;;;;;;;;;518400;28;1465;-80
2024/03/03 01:09:04;;;;;;;7.77;6.20;;;;;;;;;;518531;28;1574;-80
2024/03/03 01:09:19;;;;;;;7.93;6.38;;;;;;;;;;519820;28;1337;-80
2024/03/03 01:09:34;;;;;;;7.78;6.47;;;;;;;;;;522244;28;1478;-80
2024/03/03 01:09:50;;;;;;;7.70;6.60;;;;;;;;;;520836;28;1355;-80
2024/03/03 01:10:06;;;;;;;8.80;6.57;;;;;;;;;;520367;28;1404;-80
2024/03/03 01:10:21;;;;;;;9.80;6.53;;;;;;;;;;519045;28;1510;-80
2024/03/03 01:10:37;;;;;;;8.37;6.30;;;;;;;;;;518994;28;1507;-80
2024/03/03 01:10:52;;;;;;;7.63;6.17;;;;;;;;;;520684;28;1494;-80
2024/03/03 01:11:07;;;;;;;7.45;6.30;;;;;;;;;;518620;28;1219;-80
2024/03/03 01:11:23;;;;;;;7.47;6.33;;;;;;;;;;518110;28;1381;-79
2024/03/03 01:11:38;;;;;;;8.30;6.37;;;;;;;;;;517777;28;1982;-80
2024/03/03 01:11:53;;;;;;;8.50;6.53;;;;;;;;;;518040;28;1510;-80
2024/03/03 01:12:09;;;;;;;7.67;6.43;;;;;;;;;;515202;28;1659;-80
2024/03/03 01:12:24;;;;;;;7.50;6.13;;;;;;;;;;516469;28;1510;-80
2024/03/03 01:12:40;;;;;;;7.97;6.20;;;;;;;;;;515745;28;1511;-80
2024/03/03 01:12:55;;;;;;;9.93;6.40;;;;;;;;;;514129;28;1385;-80
2024/03/03 01:13:11;;;;;;;10.10;6.32;;;;;;;;;;517015;28;1482;-80
2024/03/03 01:13:26;;;;;;;9.03;6.10;;;;;;;;;;514822;28;1387;-80
2024/03/03 01:13:41;;;;;;;8.38;6.10;;;;;;;;;;513068;28;1351;-80
2024/03/03 01:13:57;;;;;;;7.50;5.97;;;;;;;;;;513996;28;1616;-81
2024/03/03 01:14:12;;;;;;;7.53;5.87;;;;;;;;;;516866;28;1178;-80
2024/03/03 01:14:27;;;;;;;8.15;6.30;;;;;;;;;;517318;28;1261;-80
2024/03/03 01:14:43;;;;;;;8.33;6.50;;;;;;;;;;518324;28;1528;-80
2024/03/03 01:14:58;;;;;;;7.37;6.30;;;;;;;;;;518072;28;1531;-80
2024/03/03 01:15:13;;;;;;;7.28;6.05;;;;;;;;;;516906;28;1459;-81
2024/03/03 01:15:29;;;;;;;7.40;6.13;;;;;;;;;;516355;28;1507;-81
2024/03/03 01:15:44;;;;;;;9.07;6.47;;;;;;;;;;518834;28;1353;-80
2024/03/03 01:16:00;;;;;;;9.20;6.63;;;;;;;;;;516291;28;1547;-80
2024/03/03 01:16:15;;;;;;;7.20;6.07;;;;;;;;;;516407;28;1536;-80
2024/03/03 01:16:31;;;;;;;7.45;6.18;;;;;;;;;;517183;28;1370;-81
2024/03/03 01:16:46;;;;;;;8.27;6.43;;;;;;;;;;517395;28;1439;-80
2024/03/03 01:17:01;;;;;;;8.35;6.25;;;;;;;;;;517181;28;1273;-80
2024/03/03 01:17:17;;;;;;;7.90;6.20;;;;;;;;;;517929;28;811;-80
2024/03/03 01:17:32;;;;;;;7.13;6.00;;;;;;;;;;517243;28;1580;-80
2024/03/03 01:17:47;;;;;;;7.22;6.15;;;;;;;;;;519505;28;1338;-80
2024/03/03 01:18:03;;;;;;;7.63;6.30;;;;;;;;;;518503;28;1511;-80
2024/03/03 01:18:19;;;;;;;8.43;6.38;;;;;;;;;;516968;28;1697;-80
2024/03/03 01:18:34;;;;;;;8.27;6.40;;;;;;;;;;517411;28;938;-80
2024/03/03 01:18:49;;;;;;;7.38;6.32;;;;;;;;;;515233;28;1270;-80
2024/03/03 01:19:05;;;;;;;8.33;6.47;;;;;;;;;;515573;28;1272;-81
2024/03/03 01:19:20;;;;;;;8.57;6.37;;;;;;;;;;515846;28;1113;-80
2024/03/03 01:19:36;;;;;;;8.60;6.40;;;;;;;;;;517488;28;1061;-80
2024/03/03 01:19:51;;;;;;;9.30;6.53;;;;;;;;;;518070;28;1386;-80
2024/03/03 01:20:07;;;;;;;9.03;6.50;;;;;;;;;;520881;28;1259;-80
2024/03/03 01:20:23;;;;;;;8.65;6.28;;;;;;;;;;517221;28;1257;-80
2024/03/03 01:20:38;;;;;;;7.88;6.18;;;;;;;;;;517879;28;1134;-80
2024/03/03 01:20:53;;;;;;;7.63;6.33;;;;;;;;;;519790;28;894;-81
2024/03/03 01:21:09;;;;;;;8.20;6.40;;;;;;;;;;519442;28;1285;-80
2024/03/03 01:21:24;;;;;;;8.57;6.57;;;;;;;;;;519439;28;1308;-80
2024/03/03 01:21:39;;;;;;;9.10;6.67;;;;;;;;;;519833;28;985;-80
2024/03/03 01:21:55;;;;;;;9.33;6.70;;;;;;;;;;519527;28;1241;-81
2024/03/03 01:22:10;;;;;;;8.48;6.63;;;;;;;;;;517747;28;1174;-80
2024/03/03 01:22:26;;;;;;;8.40;6.73;;;;;;;;;;519489;28;795;-81
2024/03/03 01:22:41;;;;;;;8.45;6.70;;;;;;;;;;516657;28;1325;-80
2024/03/03 01:22:56;;;;;;;8.30;6.23;;;;;;;;;;515822;28;1260;-80
2024/03/03 01:23:12;;;;;;;8.50;6.47;;;;;;;;;;515396;28;1213;-80
2024/03/03 01:23:28;;;;;;;8.63;6.70;;;;;;;;;;515608;28;1222;-80
2024/03/03 01:23:43;;;;;;;8.13;6.50;;;;;;;;;;515765;28;1176;-80
2024/03/03 01:23:59;;;;;;;8.85;6.60;;;;;;;;;;517220;28;1271;-80
2024/03/03 01:24:14;;;;;;;9.17;6.80;;;;;;;;;;519648;28;933;-80
2024/03/03 01:24:29;;;;;;;8.37;6.83;;;;;;;;;;517684;28;1210;-80
2024/03/03 01:24:45;;;;;;;9.20;6.63;;;;;;;;;;516073;28;795;-80
2024/03/03 01:25:00;;;;;;;9.63;6.63;;;;;;;;;;514520;28;1224;-80
2024/03/03 01:25:15;;;;;;;9.05;6.97;;;;;;;;;;517618;28;1260;-81
2024/03/03 01:25:31;;;;;;;8.90;6.73;;;;;;;;;;519666;28;822;-80
2024/03/03 01:25:48;;;;;;;7.73;6.13;;;;;;;;;;516562;28;1304;-80
2024/03/03 01:26:03;;;;;;;6.72;5.75;;;;;;;;;;517568;28;847;-80
2024/03/03 01:26:19;;;;;;;6.65;5.72;;;;;;;;;;518139;28;1501;-80
2024/03/03 01:26:37;;;;;;;6.97;6.00;;;;;;;;;;517683;28;1228;-80
2024/03/03 01:26:52;;;;;;;7.85;6.50;;;;;;;;;;517478;28;946;-80
2024/03/03 01:27:07;;;;;;;10.17;6.80;;;;;;;;;;517408;28;981;-80
2024/03/03 01:27:23;;;;;;;9.90;6.93;;;;;;;;;;517556;28;796;-80
2024/03/03 01:27:38;;;;;;;8.43;6.75;;;;;;;;;;515870;28;2375;-80
2024/03/03 01:27:53;;;;;;;8.60;6.57;;;;;;;;;;517308;28;2284;-80
2024/03/03 01:28:09;;;;;;;9.17;6.80;;;;;;;;;;517335;28;827;-80
2024/03/03 01:28:24;;;;;;;10.00;7.18;;;;;;;;;;517985;28;1054;-80
2024/03/03 01:28:40;;;;;;;9.93;7.10;;;;;;;;;;517936;28;1303;-80
2024/03/03 01:28:55;;;;;;;9.23;6.80;;;;;;;;;;518642;28;890;-80
2024/03/03 01:29:10;;;;;;;8.90;6.60;;;;;;;;;;519247;28;1168;-80
2024/03/03 01:29:26;;;;;;;9.03;6.60;;;;;;;;;;519476;28;841;-80
2024/03/03 01:29:42;;;;;;;10.00;6.70;;;;;;;;;;519449;28;1322;-80
2024/03/03 01:29:57;;;;;;;9.68;6.78;;;;;;;;;;520729;28;1396;-80
2024/03/03 01:30:12;;;;;;;8.97;6.90;;;;;;;;;;521691;28;763;-81
2024/03/03 01:30:28;;;;;;;9.73;7.23;;;;;;;;;;519672;28;1169;-81
2024/03/03 01:30:43;;;;;;;9.98;7.30;;;;;;;;;;520644;28;1035;-81
2024/03/03 01:30:58;;;;;;;9.47;7.27;;;;;;;;;;520687;28;1088;-80
2024/03/03 01:31:15;;;;;;;9.90;7.47;;;;;;;;;;521574;28;1255;-80
2024/03/03 01:31:30;;;;;;;9.93;7.47;;;;;;;;;;521482;28;1932;-81
2024/03/03 01:31:45;;;;;;;9.40;7.37;;;;;;;;;;521690;28;1004;-80
2024/03/03 01:32:03;;;;;;;8.43;7.03;;;;;;;;;;519955;28;1072;-80
2024/03/03 01:32:19;;;;;;;9.07;7.00;;;;;;;;;;519559;28;847;-81
2024/03/03 01:32:34;;;;;;;10.13;7.63;;;;;;;;;;519595;28;1281;-80
2024/03/03 01:32:49;;;;;;;9.40;7.47;;;;;;;;;;519692;28;1172;-80
2024/03/03 01:33:05;;;;;;;9.77;7.17;;;;;;;;;;520912;28;1390;-79
2024/03/03 01:33:20;;;;;;;9.98;7.40;;;;;;;;;;519002;28;1183;-80
2024/03/03 01:33:35;;;;;;;8.83;7.47;;;;;;;;;;517462;28;1326;-79
2024/03/03 01:33:51;;;;;;;9.07;7.37;;;;;;;;;;515399;28;1315;-80
2024/03/03 01:34:06;;;;;;;10.03;7.50;;;;;;;;;;513549;28;1366;-80
2024/03/03 01:34:23;;;;;;;9.47;7.20;;;;;;;;;;511493;29;1141;-80
2024/03/03 01:34:38;;;;;;;9.30;7.03;;;;;;;;;;513496;28;1330;-80
2024/03/03 01:34:54;;;;;;;10.13;7.40;;;;;;;;;;513534;28;1096;-80
2024/03/03 01:35:09;;;;;;;10.15;7.60;;;;;;;;;;513583;28;835;-80
2024/03/03 01:35:25;;;;;;;9.07;7.20;;;;;;;;;;513512;28;901;-81
2024/03/03 01:35:41;;;;;;;9.02;7.03;;;;;;;;;;514780;28;1057;-80
2024/03/03 01:35:56;;;;;;;8.95;7.32;;;;;;;;;;517894;28;1156;-80
2024/03/03 01:36:12;;;;;;;8.87;7.30;;;;;;;;;;517972;28;1145;-80
2024/03/03 01:36:28;;;;;;;10.23;7.05;;;;;;;;;;517492;28;1270;-80